sensor_id;sensor_type;location;lat;lon;timestamp;pressure;altitude;pressure_sealevel;temperature;humidity
10518;BME280;5307;42.548;22.968;2023-05-07T00:00:29;94059.53;;;9.33;100.00
10518;BME280;5307;42.548;22.968;2023-05-07T00:03:27;94057.06;;;9.10;100.00
10518;BME280;5307;42.548;22.968;2023-05-07T00:05:54;94056.56;;;9.15;100.00
10518;BME280;5307;42.548;22.968;2023-05-07T00:21:34;94060.16;;;8.83;100.00
10518;BME280;5307;42.548;22.968;2023-05-07T00:24:01;94061.69;;;8.84;100.00
10518;BME280;5307;42.548;22.968;2023-05-07T00:29:52;94061.25;;;8.85;100.00
10518;BME280;5307;42.548;22.968;2023-05-07T00:32:23;94064.31;;;8.87;100.00
10518;BME280;5307;42.548;22.968;2023-05-07T00:48:40;94061.56;;;8.58;100.00
10518;BME280;5307;42.548;22.968;2023-05-07T00:51:08;94057.97;;;8.49;100.00
10518;BME280;5307;42.548;22.968;2023-05-07T00:53:43;94064.72;;;8.57;100.00
10518;BME280;5307;42.548;22.968;2023-05-07T00:56:11;94068.34;;;8.38;100.00
10518;BME280;5307;42.548;22.968;2023-05-07T00:58:40;94067.47;;;8.41;100.00
10518;BME280;5307;42.548;22.968;2023-05-07T01:01:13;94071.69;;;8.58;100.00
10518;BME280;5307;42.548;22.968;2023-05-07T01:23:43;94070.38;;;8.33;100.00
10518;BME280;5307;42.548;22.968;2023-05-07T01:26:13;94081.63;;;8.36;100.00
10518;BME280;5307;42.548;22.968;2023-05-07T01:28:41;94069.44;;;8.24;100.00
10518;BME280;5307;42.548;22.968;2023-05-07T01:31:27;94064.25;;;8.13;100.00
10518;BME280;5307;42.548;22.968;2023-05-07T01:46:35;94074.28;;;8.16;100.00
10518;BME280;5307;42.548;22.968;2023-05-07T01:53:13;94061.50;;;8.29;100.00
10518;BME280;5307;42.548;22.968;2023-05-07T01:55:41;94055.84;;;8.40;100.00
10518;BME280;5307;42.548;22.968;2023-05-07T01:58:08;94061.38;;;8.37;100.00
10518;BME280;5307;42.548;22.968;2023-05-07T02:00:41;94053.00;;;8.27;100.00
10518;BME280;5307;42.548;22.968;2023-05-07T02:03:09;94051.28;;;8.04;100.00
10518;BME280;5307;42.548;22.968;2023-05-07T02:05:53;94049.66;;;8.07;100.00
10518;BME280;5307;42.548;22.968;2023-05-07T02:16:16;94037.16;;;7.93;100.00
10518;BME280;5307;42.548;22.968;2023-05-07T02:24:04;94044.00;;;8.14;100.00
10518;BME280;5307;42.548;22.968;2023-05-07T02:26:31;94035.38;;;8.03;100.00
10518;BME280;5307;42.548;22.968;2023-05-07T02:29:00;94040.72;;;7.90;100.00
10518;BME280;5307;42.548;22.968;2023-05-07T02:31:26;94045.91;;;8.01;100.00
10518;BME280;5307;42.548;22.968;2023-05-07T02:44:18;94041.84;;;7.77;100.00
10518;BME280;5307;42.548;22.968;2023-05-07T02:57:12;94050.25;;;7.82;100.00
10518;BME280;5307;42.548;22.968;2023-05-07T02:59:41;94051.94;;;7.76;100.00
10518;BME280;5307;42.548;22.968;2023-05-07T03:02:08;94048.94;;;7.70;100.00
10518;BME280;5307;42.548;22.968;2023-05-07T03:04:56;94047.34;;;7.21;100.00
10518;BME280;5307;42.548;22.968;2023-05-07T03:08:08;94046.97;;;7.55;100.00
10518;BME280;5307;42.548;22.968;2023-05-07T03:14:42;94047.09;;;7.67;100.00
10518;BME280;5307;42.548;22.968;2023-05-07T03:17:40;94044.88;;;7.79;100.00
10518;BME280;5307;42.548;22.968;2023-05-07T03:23:07;94051.56;;;7.58;100.00
10518;BME280;5307;42.548;22.968;2023-05-07T03:25:34;94056.88;;;7.81;100.00
10518;BME280;5307;42.548;22.968;2023-05-07T03:28:01;94056.94;;;7.61;100.00
10518;BME280;5307;42.548;22.968;2023-05-07T03:30:47;94058.16;;;7.40;100.00
10518;BME280;5307;42.548;22.968;2023-05-07T03:43:32;94071.09;;;7.53;100.00
10518;BME280;5307;42.548;22.968;2023-05-07T03:59:53;94085.56;;;7.66;100.00
10518;BME280;5307;42.548;22.968;2023-05-07T04:02:20;94082.88;;;7.82;100.00
10518;BME280;5307;42.548;22.968;2023-05-07T04:05:07;94100.78;;;7.80;100.00
10518;BME280;5307;42.548;22.968;2023-05-07T04:13:41;94106.75;;;7.91;100.00
10518;BME280;5307;42.548;22.968;2023-05-07T04:19:45;94108.97;;;7.96;100.00
10518;BME280;5307;42.548;22.968;2023-05-07T04:22:12;94104.91;;;8.04;100.00
10518;BME280;5307;42.548;22.968;2023-05-07T04:24:39;94117.81;;;8.16;100.00
10518;BME280;5307;42.548;22.968;2023-05-07T04:27:06;94117.22;;;8.41;100.00
10518;BME280;5307;42.548;22.968;2023-05-07T04:29:34;94112.06;;;8.47;100.00
10518;BME280;5307;42.548;22.968;2023-05-07T04:32:04;94115.03;;;8.36;100.00
10518;BME280;5307;42.548;22.968;2023-05-07T04:34:31;94123.53;;;8.38;100.00
10518;BME280;5307;42.548;22.968;2023-05-07T04:47:26;94127.97;;;8.48;100.00
10518;BME280;5307;42.548;22.968;2023-05-07T04:50:08;94127.88;;;8.36;100.00
10518;BME280;5307;42.548;22.968;2023-05-07T04:52:36;94124.63;;;8.41;100.00
10518;BME280;5307;42.548;22.968;2023-05-07T04:58:22;94112.28;;;8.52;100.00
10518;BME280;5307;42.548;22.968;2023-05-07T05:00:49;94133.03;;;8.62;100.00
10518;BME280;5307;42.548;22.968;2023-05-07T05:10:07;94125.34;;;9.19;100.00
10518;BME280;5307;42.548;22.968;2023-05-07T05:12:48;94127.25;;;9.47;100.00
10518;BME280;5307;42.548;22.968;2023-05-07T05:26:07;94141.72;;;10.11;100.00
10518;BME280;5307;42.548;22.968;2023-05-07T05:35:10;94123.50;;;10.81;100.00
10518;BME280;5307;42.548;22.968;2023-05-07T05:43:53;94124.19;;;11.51;95.31
10518;BME280;5307;42.548;22.968;2023-05-07T05:59:34;94123.34;;;12.93;86.47
10518;BME280;5307;42.548;22.968;2023-05-07T06:02:02;94125.03;;;13.08;86.69
10518;BME280;5307;42.548;22.968;2023-05-07T06:04:29;94119.56;;;13.18;84.75
10518;BME280;5307;42.548;22.968;2023-05-07T06:06:57;94122.31;;;13.36;83.38
10518;BME280;5307;42.548;22.968;2023-05-07T06:09:25;94127.50;;;13.16;84.54
10518;BME280;5307;42.548;22.968;2023-05-07T06:11:52;94122.41;;;13.87;82.70
10518;BME280;5307;42.548;22.968;2023-05-07T06:14:20;94116.09;;;14.05;79.30
10518;BME280;5307;42.548;22.968;2023-05-07T06:16:49;94112.00;;;14.91;79.58
10518;BME280;5307;42.548;22.968;2023-05-07T06:19:16;94119.53;;;13.82;77.95
10518;BME280;5307;42.548;22.968;2023-05-07T06:28:29;94088.59;;;15.34;72.69
10518;BME280;5307;42.548;22.968;2023-05-07T06:31:14;94098.28;;;15.29;72.97
10518;BME280;5307;42.548;22.968;2023-05-07T06:33:45;94084.31;;;15.18;73.36
10518;BME280;5307;42.548;22.968;2023-05-07T06:36:12;94091.78;;;14.79;71.44
10518;BME280;5307;42.548;22.968;2023-05-07T06:42:01;94078.00;;;16.50;70.32
10518;BME280;5307;42.548;22.968;2023-05-07T06:44:30;94085.97;;;15.01;71.18
10518;BME280;5307;42.548;22.968;2023-05-07T06:46:57;94080.66;;;15.36;73.11
10518;BME280;5307;42.548;22.968;2023-05-07T06:59:54;94076.50;;;17.05;66.62
10518;BME280;5307;42.548;22.968;2023-05-07T07:02:22;94072.81;;;17.34;64.01
10518;BME280;5307;42.548;22.968;2023-05-07T07:04:50;94071.25;;;16.51;63.42
10518;BME280;5307;42.548;22.968;2023-05-07T07:07:19;94078.00;;;16.15;63.26
10518;BME280;5307;42.548;22.968;2023-05-07T07:10:18;94078.00;;;17.06;62.14
10518;BME280;5307;42.548;22.968;2023-05-07T07:12:46;94074.63;;;16.76;61.84
10518;BME280;5307;42.548;22.968;2023-05-07T07:21:42;94068.03;;;17.34;59.14
10518;BME280;5307;42.548;22.968;2023-05-07T07:31:03;94056.59;;;17.99;56.74
10518;BME280;5307;42.548;22.968;2023-05-07T07:33:30;94059.38;;;17.47;57.42
10518;BME280;5307;42.548;22.968;2023-05-07T07:35:57;94062.13;;;18.30;59.90
10518;BME280;5307;42.548;22.968;2023-05-07T07:38:25;94061.59;;;17.95;57.99
10518;BME280;5307;42.548;22.968;2023-05-07T07:40:52;94067.94;;;17.49;57.46
10518;BME280;5307;42.548;22.968;2023-05-07T07:43:18;94062.25;;;18.16;57.21
10518;BME280;5307;42.548;22.968;2023-05-07T07:45:45;94068.28;;;19.65;58.86
10518;BME280;5307;42.548;22.968;2023-05-07T07:48:12;94066.06;;;19.91;55.39
10518;BME280;5307;42.548;22.968;2023-05-07T07:50:39;94075.72;;;18.71;53.45
10518;BME280;5307;42.548;22.968;2023-05-07T07:53:06;94075.50;;;18.75;55.28
10518;BME280;5307;42.548;22.968;2023-05-07T07:55:38;94077.28;;;18.83;54.41
10518;BME280;5307;42.548;22.968;2023-05-07T07:58:05;94080.53;;;19.30;55.43
10518;BME280;5307;42.548;22.968;2023-05-07T08:00:31;94068.78;;;18.87;55.61
10518;BME280;5307;42.548;22.968;2023-05-07T08:02:58;94065.72;;;18.05;56.03
10518;BME280;5307;42.548;22.968;2023-05-07T08:05:25;94072.50;;;18.41;55.13
10518;BME280;5307;42.548;22.968;2023-05-07T08:07:52;94079.78;;;18.38;55.69
10518;BME280;5307;42.548;22.968;2023-05-07T08:10:19;94067.97;;;18.44;55.78
10518;BME280;5307;42.548;22.968;2023-05-07T08:12:48;94067.00;;;18.09;53.39
10518;BME280;5307;42.548;22.968;2023-05-07T08:15:18;94065.72;;;18.42;53.31
10518;BME280;5307;42.548;22.968;2023-05-07T08:17:45;94063.38;;;17.98;51.83
10518;BME280;5307;42.548;22.968;2023-05-07T08:20:11;94059.19;;;18.82;51.30
10518;BME280;5307;42.548;22.968;2023-05-07T08:22:44;94049.19;;;19.89;48.08
10518;BME280;5307;42.548;22.968;2023-05-07T08:25:11;94054.97;;;19.80;48.08
10518;BME280;5307;42.548;22.968;2023-05-07T08:27:38;94045.38;;;19.98;48.90
10518;BME280;5307;42.548;22.968;2023-05-07T08:30:08;94050.44;;;20.05;46.67
10518;BME280;5307;42.548;22.968;2023-05-07T08:32:35;94044.13;;;19.82;47.52
10518;BME280;5307;42.548;22.968;2023-05-07T08:35:02;94048.19;;;20.03;46.66
10518;BME280;5307;42.548;22.968;2023-05-07T08:37:31;94045.38;;;19.59;46.10
10518;BME280;5307;42.548;22.968;2023-05-07T08:39:58;94042.53;;;20.82;46.83
10518;BME280;5307;42.548;22.968;2023-05-07T08:42:26;94033.03;;;20.32;45.90
10518;BME280;5307;42.548;22.968;2023-05-07T08:44:57;94027.25;;;21.16;47.15
10518;BME280;5307;42.548;22.968;2023-05-07T08:47:30;94028.81;;;21.06;47.05
10518;BME280;5307;42.548;22.968;2023-05-07T08:50:01;94031.53;;;21.28;46.78
10518;BME280;5307;42.548;22.968;2023-05-07T08:52:28;94026.72;;;21.29;45.40
10518;BME280;5307;42.548;22.968;2023-05-07T08:54:55;94021.41;;;20.51;45.39
10518;BME280;5307;42.548;22.968;2023-05-07T08:57:21;94015.28;;;21.38;49.80
10518;BME280;5307;42.548;22.968;2023-05-07T08:59:49;94015.69;;;21.53;49.03
10518;BME280;5307;42.548;22.968;2023-05-07T09:02:16;94021.00;;;21.57;45.82
10518;BME280;5307;42.548;22.968;2023-05-07T09:04:44;94015.34;;;21.32;46.27
10518;BME280;5307;42.548;22.968;2023-05-07T09:07:11;94019.69;;;20.42;46.27
10518;BME280;5307;42.548;22.968;2023-05-07T09:09:38;94007.75;;;20.69;46.85
10518;BME280;5307;42.548;22.968;2023-05-07T09:12:05;94016.78;;;21.80;46.81
10518;BME280;5307;42.548;22.968;2023-05-07T09:14:32;94007.72;;;21.39;45.31
10518;BME280;5307;42.548;22.968;2023-05-07T09:16:59;94002.84;;;21.86;46.67
10518;BME280;5307;42.548;22.968;2023-05-07T09:19:27;94006.91;;;22.45;47.59
10518;BME280;5307;42.548;22.968;2023-05-07T09:22:02;94000.41;;;22.12;44.54
10518;BME280;5307;42.548;22.968;2023-05-07T09:24:30;94000.47;;;21.96;45.26
10518;BME280;5307;42.548;22.968;2023-05-07T09:27:00;94000.16;;;22.05;44.22
10518;BME280;5307;42.548;22.968;2023-05-07T09:29:27;93994.22;;;21.13;44.73
10518;BME280;5307;42.548;22.968;2023-05-07T09:31:55;93991.75;;;21.86;43.98
10518;BME280;5307;42.548;22.968;2023-05-07T09:34:22;93990.25;;;21.44;43.59
10518;BME280;5307;42.548;22.968;2023-05-07T09:36:49;93993.09;;;21.74;43.09
10518;BME280;5307;42.548;22.968;2023-05-07T09:39:17;93990.66;;;21.59;43.35
10518;BME280;5307;42.548;22.968;2023-05-07T09:41:45;93980.97;;;22.07;44.28
10518;BME280;5307;42.548;22.968;2023-05-07T09:44:12;93969.88;;;21.71;44.54
10518;BME280;5307;42.548;22.968;2023-05-07T09:46:42;93971.44;;;21.61;43.32
10518;BME280;5307;42.548;22.968;2023-05-07T09:49:12;93974.97;;;22.27;42.38
10518;BME280;5307;42.548;22.968;2023-05-07T09:51:47;93979.59;;;22.68;42.88
10518;BME280;5307;42.548;22.968;2023-05-07T09:54:14;93965.28;;;23.01;43.35
10518;BME280;5307;42.548;22.968;2023-05-07T09:56:43;93969.28;;;22.87;41.38
10518;BME280;5307;42.548;22.968;2023-05-07T09:59:13;93968.25;;;22.41;42.29
10518;BME280;5307;42.548;22.968;2023-05-07T10:01:41;93963.31;;;22.29;39.72
10518;BME280;5307;42.548;22.968;2023-05-07T10:04:09;93961.53;;;21.66;38.56
10518;BME280;5307;42.548;22.968;2023-05-07T10:06:36;93955.13;;;22.36;38.04
10518;BME280;5307;42.548;22.968;2023-05-07T10:09:05;93959.72;;;22.77;39.04
10518;BME280;5307;42.548;22.968;2023-05-07T10:11:32;93953.09;;;23.23;39.74
10518;BME280;5307;42.548;22.968;2023-05-07T10:14:02;93955.25;;;22.93;37.35
10518;BME280;5307;42.548;22.968;2023-05-07T10:16:34;93955.34;;;22.87;41.19
10518;BME280;5307;42.548;22.968;2023-05-07T10:19:02;93951.75;;;22.19;39.34
10518;BME280;5307;42.548;22.968;2023-05-07T10:21:30;93950.84;;;22.11;40.65
10518;BME280;5307;42.548;22.968;2023-05-07T10:23:59;93957.56;;;22.21;41.20
10518;BME280;5307;42.548;22.968;2023-05-07T10:26:29;93952.19;;;22.53;42.42
10518;BME280;5307;42.548;22.968;2023-05-07T10:29:01;93948.75;;;23.09;41.21
10518;BME280;5307;42.548;22.968;2023-05-07T10:31:47;93947.53;;;23.04;39.93
10518;BME280;5307;42.548;22.968;2023-05-07T10:34:20;93944.75;;;22.80;39.32
10518;BME280;5307;42.548;22.968;2023-05-07T10:36:49;93941.16;;;22.66;37.88
10518;BME280;5307;42.548;22.968;2023-05-07T10:39:17;93934.44;;;22.56;39.22
10518;BME280;5307;42.548;22.968;2023-05-07T10:41:44;93935.03;;;22.25;37.65
10518;BME280;5307;42.548;22.968;2023-05-07T10:44:11;93931.00;;;22.69;38.26
10518;BME280;5307;42.548;22.968;2023-05-07T10:46:39;93931.25;;;22.46;38.52
10518;BME280;5307;42.548;22.968;2023-05-07T10:49:06;93923.81;;;22.55;38.42
10518;BME280;5307;42.548;22.968;2023-05-07T10:51:34;93929.38;;;22.55;38.62
10518;BME280;5307;42.548;22.968;2023-05-07T10:54:20;93930.72;;;21.93;38.90
10518;BME280;5307;42.548;22.968;2023-05-07T10:56:47;93924.63;;;21.41;38.79
10518;BME280;5307;42.548;22.968;2023-05-07T10:59:35;93919.28;;;22.51;41.80
10518;BME280;5307;42.548;22.968;2023-05-07T11:02:08;93923.34;;;21.72;38.63
10518;BME280;5307;42.548;22.968;2023-05-07T11:04:36;93919.31;;;21.73;38.76
10518;BME280;5307;42.548;22.968;2023-05-07T11:10:00;93916.13;;;21.87;37.23
10518;BME280;5307;42.548;22.968;2023-05-07T11:12:49;93917.84;;;22.20;38.04
10518;BME280;5307;42.548;22.968;2023-05-07T11:15:35;93928.16;;;22.93;39.67
10518;BME280;5307;42.548;22.968;2023-05-07T11:18:04;93918.31;;;22.49;37.23
10518;BME280;5307;42.548;22.968;2023-05-07T11:21:02;93918.50;;;21.78;37.03
10518;BME280;5307;42.548;22.968;2023-05-07T11:23:54;93913.13;;;21.85;37.95
10518;BME280;5307;42.548;22.968;2023-05-07T11:26:22;93913.06;;;21.61;37.49
10518;BME280;5307;42.548;22.968;2023-05-07T11:28:49;93906.16;;;21.73;36.89
10518;BME280;5307;42.548;22.968;2023-05-07T11:31:20;93908.72;;;22.26;37.38
10518;BME280;5307;42.548;22.968;2023-05-07T11:33:49;93903.75;;;21.88;37.79
10518;BME280;5307;42.548;22.968;2023-05-07T11:36:18;93899.91;;;21.91;37.86
10518;BME280;5307;42.548;22.968;2023-05-07T11:38:45;93894.16;;;22.14;36.71
10518;BME280;5307;42.548;22.968;2023-05-07T11:41:12;93901.56;;;22.06;38.56
10518;BME280;5307;42.548;22.968;2023-05-07T11:43:53;93895.78;;;22.90;39.89
10518;BME280;5307;42.548;22.968;2023-05-07T11:46:21;93892.66;;;22.99;40.34
10518;BME280;5307;42.548;22.968;2023-05-07T11:48:49;93899.53;;;22.74;40.26
10518;BME280;5307;42.548;22.968;2023-05-07T11:51:19;93890.34;;;22.79;38.95
10518;BME280;5307;42.548;22.968;2023-05-07T11:53:46;93887.44;;;22.90;38.30
10518;BME280;5307;42.548;22.968;2023-05-07T11:56:14;93893.63;;;22.83;39.02
10518;BME280;5307;42.548;22.968;2023-05-07T11:58:43;93889.69;;;22.05;36.97
10518;BME280;5307;42.548;22.968;2023-05-07T12:01:12;93884.38;;;21.77;37.64
10518;BME280;5307;42.548;22.968;2023-05-07T12:03:40;93882.22;;;22.19;38.67
10518;BME280;5307;42.548;22.968;2023-05-07T12:06:11;93874.53;;;22.01;36.44
10518;BME280;5307;42.548;22.968;2023-05-07T12:08:38;93877.75;;;21.80;37.21
10518;BME280;5307;42.548;22.968;2023-05-07T12:11:09;93862.91;;;22.02;37.85
10518;BME280;5307;42.548;22.968;2023-05-07T12:13:39;93872.34;;;21.69;37.60
10518;BME280;5307;42.548;22.968;2023-05-07T12:16:06;93867.22;;;21.73;37.26
10518;BME280;5307;42.548;22.968;2023-05-07T12:18:35;93874.31;;;22.23;40.89
10518;BME280;5307;42.548;22.968;2023-05-07T12:21:04;93869.81;;;22.20;39.74
10518;BME280;5307;42.548;22.968;2023-05-07T12:23:33;93871.06;;;22.43;39.04
10518;BME280;5307;42.548;22.968;2023-05-07T12:26:00;93864.03;;;22.99;40.48
10518;BME280;5307;42.548;22.968;2023-05-07T12:28:27;93856.47;;;22.56;39.48
10518;BME280;5307;42.548;22.968;2023-05-07T12:30:54;93860.78;;;22.14;37.83
10518;BME280;5307;42.548;22.968;2023-05-07T12:33:25;93857.69;;;22.17;39.48
10518;BME280;5307;42.548;22.968;2023-05-07T12:35:55;93853.09;;;22.63;38.35
10518;BME280;5307;42.548;22.968;2023-05-07T12:38:22;93850.53;;;22.65;38.63
10518;BME280;5307;42.548;22.968;2023-05-07T12:40:54;93840.91;;;22.66;40.22
10518;BME280;5307;42.548;22.968;2023-05-07T12:43:24;93844.38;;;22.54;39.33
10518;BME280;5307;42.548;22.968;2023-05-07T12:45:54;93842.47;;;22.43;38.49
10518;BME280;5307;42.548;22.968;2023-05-07T12:48:22;93832.66;;;22.98;40.06
10518;BME280;5307;42.548;22.968;2023-05-07T12:50:49;93827.75;;;22.86;37.81
10518;BME280;5307;42.548;22.968;2023-05-07T12:53:16;93834.66;;;22.41;36.78
10518;BME280;5307;42.548;22.968;2023-05-07T12:55:44;93827.41;;;22.51;37.16
10518;BME280;5307;42.548;22.968;2023-05-07T12:58:19;93828.25;;;22.46;39.01
10518;BME280;5307;42.548;22.968;2023-05-07T13:00:48;93824.06;;;22.59;37.49
10518;BME280;5307;42.548;22.968;2023-05-07T13:03:23;93816.38;;;22.46;36.80
10518;BME280;5307;42.548;22.968;2023-05-07T13:05:51;93825.00;;;21.99;37.74
10518;BME280;5307;42.548;22.968;2023-05-07T13:08:28;93812.31;;;22.04;39.56
10518;BME280;5307;42.548;22.968;2023-05-07T13:10:56;93821.75;;;21.95;37.26
10518;BME280;5307;42.548;22.968;2023-05-07T13:13:24;93811.22;;;21.88;37.11
10518;BME280;5307;42.548;22.968;2023-05-07T13:15:51;93813.66;;;21.97;38.56
10518;BME280;5307;42.548;22.968;2023-05-07T13:18:18;93816.28;;;22.14;39.20
10518;BME280;5307;42.548;22.968;2023-05-07T13:20:45;93818.34;;;22.08;38.31
10518;BME280;5307;42.548;22.968;2023-05-07T13:23:12;93813.13;;;21.99;37.88
10518;BME280;5307;42.548;22.968;2023-05-07T13:25:42;93809.75;;;21.81;39.77
10518;BME280;5307;42.548;22.968;2023-05-07T13:28:09;93814.88;;;21.77;39.22
10518;BME280;5307;42.548;22.968;2023-05-07T13:30:38;93824.72;;;21.78;39.24
10518;BME280;5307;42.548;22.968;2023-05-07T13:33:06;93821.25;;;21.72;38.46
10518;BME280;5307;42.548;22.968;2023-05-07T13:35:33;93810.88;;;21.73;38.45
10518;BME280;5307;42.548;22.968;2023-05-07T13:38:01;93806.19;;;21.86;39.69
10518;BME280;5307;42.548;22.968;2023-05-07T13:40:28;93816.72;;;22.18;39.01
10518;BME280;5307;42.548;22.968;2023-05-07T13:42:57;93816.47;;;22.40;39.27
10518;BME280;5307;42.548;22.968;2023-05-07T13:45:24;93809.22;;;22.13;41.52
10518;BME280;5307;42.548;22.968;2023-05-07T13:47:53;93804.50;;;22.02;39.49
10518;BME280;5307;42.548;22.968;2023-05-07T13:50:20;93815.63;;;21.78;41.49
10518;BME280;5307;42.548;22.968;2023-05-07T13:52:47;93816.59;;;21.80;39.56
10518;BME280;5307;42.548;22.968;2023-05-07T13:55:16;93815.28;;;21.87;38.81
10518;BME280;5307;42.548;22.968;2023-05-07T13:57:43;93818.97;;;21.95;40.57
10518;BME280;5307;42.548;22.968;2023-05-07T14:00:11;93816.94;;;21.96;41.00
10518;BME280;5307;42.548;22.968;2023-05-07T14:02:38;93816.47;;;21.91;38.94
10518;BME280;5307;42.548;22.968;2023-05-07T14:05:07;93812.53;;;21.81;39.12
10518;BME280;5307;42.548;22.968;2023-05-07T14:07:34;93819.38;;;22.05;40.04
10518;BME280;5307;42.548;22.968;2023-05-07T14:10:01;93802.41;;;22.08;39.12
10518;BME280;5307;42.548;22.968;2023-05-07T14:12:28;93812.44;;;21.92;38.96
10518;BME280;5307;42.548;22.968;2023-05-07T14:15:01;93817.25;;;22.35;41.78
10518;BME280;5307;42.548;22.968;2023-05-07T14:17:28;93823.22;;;21.77;39.35
10518;BME280;5307;42.548;22.968;2023-05-07T14:19:55;93812.94;;;21.67;40.68
10518;BME280;5307;42.548;22.968;2023-05-07T14:22:42;93826.56;;;21.70;41.91
10518;BME280;5307;42.548;22.968;2023-05-07T14:25:09;93819.50;;;21.69;39.70
10518;BME280;5307;42.548;22.968;2023-05-07T14:27:36;93823.28;;;21.72;40.32
10518;BME280;5307;42.548;22.968;2023-05-07T14:30:03;93824.94;;;21.56;42.15
10518;BME280;5307;42.548;22.968;2023-05-07T14:32:30;93816.88;;;21.52;43.04
10518;BME280;5307;42.548;22.968;2023-05-07T14:34:57;93817.03;;;21.36;41.52
10518;BME280;5307;42.548;22.968;2023-05-07T14:37:23;93812.75;;;21.34;40.49
10518;BME280;5307;42.548;22.968;2023-05-07T14:39:52;93816.56;;;21.31;42.21
10518;BME280;5307;42.548;22.968;2023-05-07T14:42:18;93815.53;;;21.34;41.83
10518;BME280;5307;42.548;22.968;2023-05-07T14:44:46;93817.25;;;21.38;42.02
10518;BME280;5307;42.548;22.968;2023-05-07T14:47:13;93815.75;;;21.37;41.05
10518;BME280;5307;42.548;22.968;2023-05-07T14:49:41;93811.75;;;21.62;42.55
10518;BME280;5307;42.548;22.968;2023-05-07T14:52:07;93817.88;;;21.55;42.24
10518;BME280;5307;42.548;22.968;2023-05-07T14:58:18;93815.50;;;21.40;44.90
10518;BME280;5307;42.548;22.968;2023-05-07T15:00:44;93805.47;;;21.31;40.88
10518;BME280;5307;42.548;22.968;2023-05-07T15:03:11;93813.47;;;21.41;40.48
10518;BME280;5307;42.548;22.968;2023-05-07T15:05:38;93811.53;;;21.24;39.93
10518;BME280;5307;42.548;22.968;2023-05-07T15:08:06;93816.88;;;21.28;39.74
10518;BME280;5307;42.548;22.968;2023-05-07T15:10:35;93797.41;;;21.22;41.85
10518;BME280;5307;42.548;22.968;2023-05-07T15:13:06;93821.66;;;21.27;41.02
10518;BME280;5307;42.548;22.968;2023-05-07T15:15:35;93811.06;;;21.26;40.46
10518;BME280;5307;42.548;22.968;2023-05-07T15:18:02;93815.34;;;21.21;39.11
10518;BME280;5307;42.548;22.968;2023-05-07T15:20:29;93819.19;;;21.18;39.99
10518;BME280;5307;42.548;22.968;2023-05-07T15:22:56;93806.34;;;21.15;39.97
10518;BME280;5307;42.548;22.968;2023-05-07T15:25:23;93812.59;;;21.21;42.00
10518;BME280;5307;42.548;22.968;2023-05-07T15:27:50;93805.75;;;21.28;42.32
10518;BME280;5307;42.548;22.968;2023-05-07T15:30:18;93809.75;;;21.32;41.38
10518;BME280;5307;42.548;22.968;2023-05-07T15:32:48;93801.41;;;21.32;42.43
10518;BME280;5307;42.548;22.968;2023-05-07T15:35:15;93795.84;;;21.32;42.59
10518;BME280;5307;42.548;22.968;2023-05-07T15:37:42;93799.19;;;21.25;40.69
10518;BME280;5307;42.548;22.968;2023-05-07T15:40:09;93801.31;;;21.08;40.15
10518;BME280;5307;42.548;22.968;2023-05-07T15:42:36;93800.41;;;21.00;41.64
10518;BME280;5307;42.548;22.968;2023-05-07T15:45:04;93788.09;;;20.90;41.74
10518;BME280;5307;42.548;22.968;2023-05-07T15:47:33;93790.41;;;20.86;41.98
10518;BME280;5307;42.548;22.968;2023-05-07T15:50:02;93795.47;;;20.82;43.33
10518;BME280;5307;42.548;22.968;2023-05-07T15:52:30;93792.13;;;20.89;42.21
10518;BME280;5307;42.548;22.968;2023-05-07T15:54:57;93786.00;;;21.01;39.91
10518;BME280;5307;42.548;22.968;2023-05-07T15:57:25;93789.81;;;20.98;42.19
10518;BME280;5307;42.548;22.968;2023-05-07T15:59:52;93786.00;;;21.01;42.99
10518;BME280;5307;42.548;22.968;2023-05-07T16:02:18;93777.94;;;20.98;40.65
10518;BME280;5307;42.548;22.968;2023-05-07T16:04:46;93779.44;;;20.99;41.95
10518;BME280;5307;42.548;22.968;2023-05-07T16:07:14;93776.75;;;20.88;40.58
10518;BME280;5307;42.548;22.968;2023-05-07T16:09:41;93772.19;;;20.90;42.01
10518;BME280;5307;42.548;22.968;2023-05-07T16:12:08;93779.81;;;20.84;43.88
10518;BME280;5307;42.548;22.968;2023-05-07T16:14:36;93769.19;;;20.83;44.33
10518;BME280;5307;42.548;22.968;2023-05-07T16:17:03;93777.31;;;20.81;45.15
10518;BME280;5307;42.548;22.968;2023-05-07T16:19:29;93774.63;;;20.69;46.21
10518;BME280;5307;42.548;22.968;2023-05-07T16:21:56;93773.63;;;20.67;45.68
10518;BME280;5307;42.548;22.968;2023-05-07T16:24:25;93775.91;;;20.63;46.51
10518;BME280;5307;42.548;22.968;2023-05-07T16:26:52;93774.41;;;20.62;43.51
10518;BME280;5307;42.548;22.968;2023-05-07T16:29:19;93782.78;;;20.56;42.74
10518;BME280;5307;42.548;22.968;2023-05-07T16:31:47;93765.63;;;20.52;43.92
10518;BME280;5307;42.548;22.968;2023-05-07T16:34:14;93776.72;;;20.52;42.95
10518;BME280;5307;42.548;22.968;2023-05-07T16:36:40;93778.31;;;20.36;44.41
10518;BME280;5307;42.548;22.968;2023-05-07T16:39:07;93774.28;;;20.37;43.69
10518;BME280;5307;42.548;22.968;2023-05-07T16:41:36;93776.72;;;20.05;47.23
10518;BME280;5307;42.548;22.968;2023-05-07T16:44:03;93773.84;;;20.28;44.42
10518;BME280;5307;42.548;22.968;2023-05-07T16:46:30;93771.88;;;20.11;48.51
10518;BME280;5307;42.548;22.968;2023-05-07T16:48:57;93764.94;;;19.88;52.42
10518;BME280;5307;42.548;22.968;2023-05-07T16:51:24;93767.81;;;19.49;56.39
10518;BME280;5307;42.548;22.968;2023-05-07T16:53:52;93774.63;;;19.37;57.72
10518;BME280;5307;42.548;22.968;2023-05-07T16:56:19;93778.16;;;19.26;58.18
10518;BME280;5307;42.548;22.968;2023-05-07T16:58:47;93787.22;;;19.32;55.88
10518;BME280;5307;42.548;22.968;2023-05-07T17:01:14;93790.50;;;19.19;54.97
10518;BME280;5307;42.548;22.968;2023-05-07T17:03:43;93790.25;;;19.17;58.11
10518;BME280;5307;42.548;22.968;2023-05-07T17:06:10;93788.75;;;18.88;57.64
10518;BME280;5307;42.548;22.968;2023-05-07T17:08:40;93789.00;;;18.90;55.21
10518;BME280;5307;42.548;22.968;2023-05-07T17:11:07;93795.56;;;18.93;54.99